Time;durP1;ratioP1;P1;durP2;ratioP2;P2;SDS_P1;SDS_P2;PMS_P1;PMS_P2;Temp;Humidity;BMP_temperature;BMP_pressure;BME280_temperature;BME280_humidity;BME280_pressure;Samples;Min_cycle;Max_cycle;Signal;HPM_P1;HPM_P2
2023/05/18 00:00:59;;;;;;;15.47;3.63;;;;;;;;;;5025548;28;20217;-70
2023/05/18 00:03:24;;;;;;;10.87;3.80;;;;;;;;;;5024920;28;20202;-70
2023/05/18 00:05:50;;;;;;;8.63;3.50;;;;;;;;;;5021834;28;20248;-71
2023/05/18 00:08:15;;;;;;;10.50;4.10;;;;;;;;;;5022526;28;20185;-71
2023/05/18 00:10:41;;;;;;;10.60;3.60;;;;;;;;;;5017853;28;20292;-70
2023/05/18 00:13:07;;;;;;;12.90;3.83;;;;;;;;;;5020608;28;20490;-70
2023/05/18 00:15:33;;;;;;;9.00;3.93;;;;;;;;;;5017831;28;20214;-70
2023/05/18 00:17:58;;;;;;;7.27;3.43;;;;;;;;;;5029983;28;20223;-70
2023/05/18 00:20:25;;;;;;;8.73;3.60;;;;;;;;;;5039203;28;20200;-70
2023/05/18 00:22:51;;;;;;;12.20;3.70;;;;;;;;;;5027729;28;20194;-70
2023/05/18 00:25:17;;;;;;;7.53;3.50;;;;;;;;;;5030051;28;20206;-70
2023/05/18 00:27:42;;;;;;;8.67;3.67;;;;;;;;;;5014847;28;20665;-70
2023/05/18 00:30:08;;;;;;;8.07;3.50;;;;;;;;;;5026392;28;20202;-70
2023/05/18 00:32:33;;;;;;;10.87;3.40;;;;;;;;;;5032287;28;20568;-70
2023/05/18 00:34:59;;;;;;;8.80;3.87;;;;;;;;;;5031079;28;20642;-70
2023/05/18 00:37:24;;;;;;;9.00;3.73;;;;;;;;;;5024760;28;20217;-71
2023/05/18 00:39:49;;;;;;;8.63;3.73;;;;;;;;;;5026481;28;20277;-70
2023/05/18 00:42:15;;;;;;;8.87;3.80;;;;;;;;;;5033360;28;20560;-70
2023/05/18 00:44:40;;;;;;;11.57;4.17;;;;;;;;;;5037610;28;20186;-70
2023/05/18 00:47:06;;;;;;;9.43;3.80;;;;;;;;;;5026556;28;20642;-70
2023/05/18 00:49:31;;;;;;;9.03;3.43;;;;;;;;;;5022080;28;20193;-70
2023/05/18 00:51:57;;;;;;;12.37;3.93;;;;;;;;;;5009098;28;20213;-70
2023/05/18 00:54:22;;;;;;;7.60;3.60;;;;;;;;;;5027011;28;20642;-70
2023/05/18 00:56:48;;;;;;;9.03;3.83;;;;;;;;;;5031483;28;20237;-70
2023/05/18 00:59:14;;;;;;;10.23;3.93;;;;;;;;;;5024778;28;20196;-70
2023/05/18 01:01:42;;;;;;;8.13;3.57;;;;;;;;;;5028026;28;20210;-70
2023/05/18 01:04:09;;;;;;;11.87;4.23;;;;;;;;;;5031059;28;20560;-70
2023/05/18 01:06:34;;;;;;;8.77;3.97;;;;;;;;;;5038434;28;20197;-69
2023/05/18 01:09:05;;;;;;;7.57;3.90;;;;;;;;;;5022367;28;20650;-69
2023/05/18 01:11:43;;;;;;;7.23;3.87;;;;;;;;;;5027867;28;20643;-70
2023/05/18 01:14:28;;;;;;;8.37;3.93;;;;;;;;;;5027621;28;20282;-71
2023/05/18 01:17:05;;;;;;;8.63;4.07;;;;;;;;;;5035698;28;20261;-71
2023/05/18 01:20:05;;;;;;;6.43;3.70;;;;;;;;;;5032299;28;20202;-71
2023/05/18 01:22:57;;;;;;;6.93;4.00;;;;;;;;;;5039286;28;20607;-71
2023/05/18 01:25:57;;;;;;;9.83;4.10;;;;;;;;;;5035673;28;20305;-71
2023/05/18 01:28:30;;;;;;;8.77;4.50;;;;;;;;;;5015039;28;20606;-71
2023/05/18 01:30:57;;;;;;;7.80;3.73;;;;;;;;;;5033831;28;20296;-71
2023/05/18 01:33:24;;;;;;;7.80;3.77;;;;;;;;;;5027742;28;20263;-70
2023/05/18 01:35:50;;;;;;;9.87;3.77;;;;;;;;;;5029570;28;20822;-71
2023/05/18 01:38:23;;;;;;;11.37;4.40;;;;;;;;;;5028233;28;20584;-70
2023/05/18 01:41:12;;;;;;;8.73;4.17;;;;;;;;;;5040058;28;20676;-70
2023/05/18 01:44:00;;;;;;;11.93;4.27;;;;;;;;;;5031308;28;20201;-71
2023/05/18 01:46:54;;;;;;;11.30;4.43;;;;;;;;;;5028139;28;20193;-70
2023/05/18 01:49:29;;;;;;;13.87;4.20;;;;;;;;;;5020661;28;20248;-70
2023/05/18 01:51:59;;;;;;;12.10;3.97;;;;;;;;;;5037081;28;20215;-71
2023/05/18 01:54:26;;;;;;;8.23;3.87;;;;;;;;;;5028099;28;20190;-71
2023/05/18 01:56:54;;;;;;;9.83;3.77;;;;;;;;;;5027745;28;20678;-70
2023/05/18 01:59:21;;;;;;;9.43;4.23;;;;;;;;;;5039548;28;20236;-71
2023/05/18 02:01:46;;;;;;;11.07;4.47;;;;;;;;;;5025785;28;20634;-71
2023/05/18 02:04:11;;;;;;;7.93;4.10;;;;;;;;;;5025484;28;20265;-71
2023/05/18 02:06:37;;;;;;;6.37;4.10;;;;;;;;;;5027476;28;20705;-71
2023/05/18 02:09:05;;;;;;;8.10;4.13;;;;;;;;;;5025640;28;20201;-71
2023/05/18 02:11:31;;;;;;;8.80;3.87;;;;;;;;;;5028102;28;20263;-70
2023/05/18 02:13:56;;;;;;;13.47;4.60;;;;;;;;;;5031242;28;20198;-70
2023/05/18 02:16:22;;;;;;;12.80;4.43;;;;;;;;;;5026478;28;20190;-71
2023/05/18 02:18:47;;;;;;;12.87;4.63;;;;;;;;;;5029305;28;20533;-71
2023/05/18 02:21:13;;;;;;;8.93;4.10;;;;;;;;;;5031019;28;20520;-71
2023/05/18 02:23:40;;;;;;;8.63;3.83;;;;;;;;;;5036923;28;20320;-70
2023/05/18 02:26:05;;;;;;;9.67;4.67;;;;;;;;;;5029608;28;20186;-71
2023/05/18 02:28:31;;;;;;;9.60;4.83;;;;;;;;;;5045613;28;20193;-70
2023/05/18 02:31:07;;;;;;;11.57;4.40;;;;;;;;;;5030007;28;20221;-72
2023/05/18 02:33:38;;;;;;;11.10;4.53;;;;;;;;;;5029471;28;20216;-71
2023/05/18 02:36:06;;;;;;;9.53;4.30;;;;;;;;;;5030823;28;20340;-71
2023/05/18 02:38:31;;;;;;;14.10;4.73;;;;;;;;;;5030666;28;20228;-70
2023/05/18 02:40:56;;;;;;;7.27;4.10;;;;;;;;;;5027938;28;20182;-71
2023/05/18 02:43:22;;;;;;;8.03;4.10;;;;;;;;;;5030025;28;20681;-70
2023/05/18 02:45:47;;;;;;;9.63;4.20;;;;;;;;;;5030538;28;20273;-71
2023/05/18 02:48:12;;;;;;;9.87;4.33;;;;;;;;;;5024687;28;20195;-71
2023/05/18 02:50:38;;;;;;;11.03;4.87;;;;;;;;;;5020081;28;20298;-71
2023/05/18 02:53:03;;;;;;;11.87;4.83;;;;;;;;;;5024408;28;20874;-71
2023/05/18 02:55:29;;;;;;;7.80;4.00;;;;;;;;;;5023647;28;20191;-71
2023/05/18 02:57:56;;;;;;;8.83;4.40;;;;;;;;;;5026555;28;20188;-70
2023/05/18 03:00:22;;;;;;;8.03;4.17;;;;;;;;;;5025673;28;20689;-71
2023/05/18 03:02:49;;;;;;;12.57;4.73;;;;;;;;;;5030519;28;20219;-71
2023/05/18 03:05:15;;;;;;;12.53;4.40;;;;;;;;;;5023243;28;20321;-71
2023/05/18 03:07:44;;;;;;;10.57;4.83;;;;;;;;;;5029457;28;20271;-71
2023/05/18 03:10:10;;;;;;;12.30;5.00;;;;;;;;;;5030220;28;20186;-71
2023/05/18 03:12:35;;;;;;;8.97;4.30;;;;;;;;;;5028701;28;20555;-71
2023/05/18 03:15:01;;;;;;;7.93;4.50;;;;;;;;;;5033438;28;20205;-71
2023/05/18 03:17:26;;;;;;;9.60;4.17;;;;;;;;;;5035528;28;20552;-71
2023/05/18 03:19:51;;;;;;;11.93;4.87;;;;;;;;;;5035919;28;20177;-71
2023/05/18 03:22:17;;;;;;;9.67;4.10;;;;;;;;;;5033510;28;20194;-71
2023/05/18 03:24:43;;;;;;;7.33;4.57;;;;;;;;;;5028296;28;20180;-72
2023/05/18 03:27:08;;;;;;;9.80;4.37;;;;;;;;;;5029520;28;20182;-71
2023/05/18 03:29:34;;;;;;;12.40;5.00;;;;;;;;;;5027272;28;20606;-71
2023/05/18 03:31:59;;;;;;;9.67;4.43;;;;;;;;;;5021594;28;20234;-71
2023/05/18 03:34:25;;;;;;;10.07;4.63;;;;;;;;;;5042535;28;20194;-72
2023/05/18 03:36:51;;;;;;;10.67;4.87;;;;;;;;;;5035572;28;20189;-71
2023/05/18 03:39:16;;;;;;;11.47;4.90;;;;;;;;;;5047425;28;20237;-71
2023/05/18 03:41:42;;;;;;;12.83;5.60;;;;;;;;;;5033087;28;20194;-71
2023/05/18 03:44:08;;;;;;;9.90;4.83;;;;;;;;;;5034138;28;20185;-71
2023/05/18 03:46:33;;;;;;;12.57;5.23;;;;;;;;;;5041416;28;20249;-71
2023/05/18 03:48:58;;;;;;;12.33;5.47;;;;;;;;;;5028447;28;20204;-71
2023/05/18 03:51:25;;;;;;;8.20;4.60;;;;;;;;;;5028288;28;20295;-71
2023/05/18 03:53:51;;;;;;;11.37;5.00;;;;;;;;;;5027442;28;20669;-71
2023/05/18 03:56:16;;;;;;;11.50;5.10;;;;;;;;;;5020123;28;20273;-71
2023/05/18 03:58:43;;;;;;;14.17;5.43;;;;;;;;;;5026163;28;20187;-71
2023/05/18 04:01:08;;;;;;;13.03;5.97;;;;;;;;;;5038810;28;20680;-71
2023/05/18 04:03:34;;;;;;;13.90;5.57;;;;;;;;;;5027921;28;20201;-71
2023/05/18 04:05:59;;;;;;;13.10;4.97;;;;;;;;;;5026439;28;20194;-71
2023/05/18 04:08:24;;;;;;;13.80;5.17;;;;;;;;;;5033322;28;20197;-71
2023/05/18 04:10:51;;;;;;;9.43;4.77;;;;;;;;;;5032802;28;20245;-71
2023/05/18 04:13:16;;;;;;;14.37;4.60;;;;;;;;;;5027871;28;20216;-71
2023/05/18 04:15:42;;;;;;;10.73;4.83;;;;;;;;;;5027700;28;20269;-72
2023/05/18 04:18:09;;;;;;;15.27;5.47;;;;;;;;;;5028130;28;20189;-71
2023/05/18 04:20:36;;;;;;;9.70;4.90;;;;;;;;;;5027555;28;20705;-72
2023/05/18 04:23:03;;;;;;;7.53;5.00;;;;;;;;;;5028362;28;20186;-72
2023/05/18 04:25:30;;;;;;;10.83;4.80;;;;;;;;;;5037115;28;20185;-71
2023/05/18 04:27:55;;;;;;;16.43;4.90;;;;;;;;;;5028653;28;20193;-71
2023/05/18 04:30:22;;;;;;;8.10;4.97;;;;;;;;;;5027856;28;20201;-71
2023/05/18 04:32:48;;;;;;;11.87;5.30;;;;;;;;;;5024241;28;20178;-69
2023/05/18 04:35:14;;;;;;;7.27;4.50;;;;;;;;;;5025024;28;20653;-70
2023/05/18 04:37:39;;;;;;;10.90;4.80;;;;;;;;;;5045119;28;20190;-70
2023/05/18 04:40:06;;;;;;;9.93;4.57;;;;;;;;;;5047454;28;20188;-70
2023/05/18 04:42:34;;;;;;;12.20;5.00;;;;;;;;;;5027489;28;20198;-71
2023/05/18 04:45:00;;;;;;;8.73;4.57;;;;;;;;;;5027087;28;20213;-70
2023/05/18 04:47:25;;;;;;;18.43;5.33;;;;;;;;;;5025898;28;20232;-71
2023/05/18 04:49:54;;;;;;;11.43;4.50;;;;;;;;;;5041036;28;20179;-71
2023/05/18 04:52:20;;;;;;;10.73;5.20;;;;;;;;;;5017705;28;20218;-70
2023/05/18 04:54:46;;;;;;;12.60;4.90;;;;;;;;;;5029381;28;20212;-71
2023/05/18 04:57:12;;;;;;;10.47;4.97;;;;;;;;;;5027499;28;20232;-71
2023/05/18 04:59:37;;;;;;;11.10;5.63;;;;;;;;;;5026232;28;20193;-71
2023/05/18 05:02:03;;;;;;;11.80;4.60;;;;;;;;;;5026492;28;20216;-71
2023/05/18 05:04:29;;;;;;;10.13;4.47;;;;;;;;;;5025248;28;20217;-70
2023/05/18 05:06:54;;;;;;;11.10;4.53;;;;;;;;;;5027610;28;20201;-71
2023/05/18 05:09:20;;;;;;;10.57;3.90;;;;;;;;;;5026754;28;20182;-71
2023/05/18 05:11:45;;;;;;;9.00;4.20;;;;;;;;;;5018967;28;20209;-72
2023/05/18 05:14:11;;;;;;;10.57;4.10;;;;;;;;;;5028496;28;20190;-71
2023/05/18 05:16:36;;;;;;;10.67;3.97;;;;;;;;;;5025134;28;20726;-71
2023/05/18 05:19:02;;;;;;;15.07;4.77;;;;;;;;;;5015400;28;20193;-70
2023/05/18 05:21:27;;;;;;;12.43;4.27;;;;;;;;;;5019104;28;20553;-71
2023/05/18 05:23:53;;;;;;;13.73;4.77;;;;;;;;;;5024413;28;20182;-70
2023/05/18 05:26:20;;;;;;;9.93;3.90;;;;;;;;;;5026872;28;20186;-70
2023/05/18 05:28:46;;;;;;;10.47;3.77;;;;;;;;;;5031268;28;20301;-71
2023/05/18 05:31:11;;;;;;;8.50;3.47;;;;;;;;;;5015204;28;20289;-71
2023/05/18 05:33:36;;;;;;;10.70;3.73;;;;;;;;;;5023070;28;20269;-70
2023/05/18 05:36:04;;;;;;;12.70;3.37;;;;;;;;;;4326538;28;10000835;-71
2023/05/18 05:38:30;;;;;;;12.52;3.80;;;;;;;;;;5031738;28;20705;-71
2023/05/18 05:40:55;;;;;;;14.23;3.20;;;;;;;;;;5027147;28;20651;-71
2023/05/18 05:43:21;;;;;;;17.57;3.10;;;;;;;;;;5020174;28;20237;-70
2023/05/18 05:45:46;;;;;;;9.97;3.40;;;;;;;;;;5023972;28;20197;-71
2023/05/18 05:48:11;;;;;;;13.77;2.73;;;;;;;;;;5023754;28;20185;-71
2023/05/18 05:50:37;;;;;;;10.80;3.40;;;;;;;;;;5035994;28;20457;-70
2023/05/18 05:53:02;;;;;;;12.27;3.40;;;;;;;;;;5027833;28;20182;-71
2023/05/18 05:55:28;;;;;;;12.93;3.37;;;;;;;;;;5027671;28;20224;-71
2023/05/18 05:57:53;;;;;;;15.23;3.53;;;;;;;;;;5027365;28;20317;-71
2023/05/18 06:00:19;;;;;;;12.10;3.30;;;;;;;;;;5026663;28;20210;-70
2023/05/18 06:02:44;;;;;;;10.13;2.90;;;;;;;;;;5024662;28;20190;-71
2023/05/18 06:05:10;;;;;;;14.88;2.75;;;;;;;;;;5023973;28;20190;-71
2023/05/18 06:07:35;;;;;;;9.57;3.20;;;;;;;;;;5017340;28;20206;-70
2023/05/18 06:10:01;;;;;;;14.75;2.97;;;;;;;;;;5028946;28;20209;-71
2023/05/18 06:12:27;;;;;;;7.30;3.08;;;;;;;;;;5026447;28;20210;-70
2023/05/18 06:14:56;;;;;;;14.13;3.38;;;;;;;;;;5025685;28;20477;-70
2023/05/18 06:17:23;;;;;;;9.45;2.50;;;;;;;;;;5015933;28;20194;-71
2023/05/18 06:19:48;;;;;;;11.23;2.70;;;;;;;;;;5015994;28;20478;-70
2023/05/18 06:22:13;;;;;;;15.00;3.00;;;;;;;;;;5027174;28;20193;-70
2023/05/18 06:24:39;;;;;;;11.20;2.60;;;;;;;;;;5015978;28;20277;-70
2023/05/18 06:27:04;;;;;;;11.52;3.00;;;;;;;;;;5035394;28;20549;-70
2023/05/18 06:29:30;;;;;;;10.40;2.30;;;;;;;;;;5024388;28;20260;-71
2023/05/18 06:31:56;;;;;;;10.57;2.75;;;;;;;;;;5023035;28;20210;-70
2023/05/18 06:34:21;;;;;;;5.65;2.00;;;;;;;;;;5025523;28;20237;-70
2023/05/18 06:36:47;;;;;;;11.00;2.10;;;;;;;;;;5022882;28;20567;-71
2023/05/18 06:39:12;;;;;;;9.68;2.78;;;;;;;;;;5022908;28;20553;-71
2023/05/18 06:41:37;;;;;;;8.63;1.80;;;;;;;;;;5033603;28;20268;-70
2023/05/18 06:44:03;;;;;;;13.38;2.15;;;;;;;;;;5022757;28;20202;-70
2023/05/18 06:46:28;;;;;;;12.10;1.80;;;;;;;;;;5024960;28;20201;-70
2023/05/18 06:48:54;;;;;;;10.82;2.58;;;;;;;;;;5019509;28;20207;-70
2023/05/18 06:51:19;;;;;;;12.93;2.30;;;;;;;;;;5040356;28;20732;-70
2023/05/18 06:53:45;;;;;;;11.95;2.25;;;;;;;;;;5027349;28;20203;-68
2023/05/18 06:56:11;;;;;;;10.27;1.73;;;;;;;;;;5027523;28;20236;-70
2023/05/18 06:58:40;;;;;;;4.72;1.60;;;;;;;;;;5026955;28;20202;-71
2023/05/18 07:01:06;;;;;;;7.13;1.63;;;;;;;;;;5019882;28;20215;-70
2023/05/18 07:03:31;;;;;;;9.70;3.10;;;;;;;;;;5025368;28;20269;-70
2023/05/18 07:05:57;;;;;;;6.40;1.63;;;;;;;;;;5037491;28;20568;-72
2023/05/18 07:08:23;;;;;;;11.35;2.38;;;;;;;;;;5028886;28;20181;-69
2023/05/18 07:10:49;;;;;;;9.25;2.00;;;;;;;;;;5032635;28;20293;-69
2023/05/18 07:13:14;;;;;;;6.45;1.73;;;;;;;;;;5026286;28;20328;-69
2023/05/18 07:15:40;;;;;;;11.23;2.42;;;;;;;;;;5023234;28;20236;-69
2023/05/18 07:18:05;;;;;;;8.57;2.28;;;;;;;;;;5025288;28;20265;-71
2023/05/18 07:20:31;;;;;;;5.57;1.80;;;;;;;;;;5029030;28;20285;-71
2023/05/18 07:22:56;;;;;;;10.82;1.92;;;;;;;;;;5026463;28;20190;-71
2023/05/18 07:25:22;;;;;;;11.75;2.20;;;;;;;;;;5033874;28;20225;-71
2023/05/18 07:27:48;;;;;;;10.15;1.88;;;;;;;;;;5027066;28;20701;-71
2023/05/18 07:30:13;;;;;;;9.60;1.90;;;;;;;;;;5036741;28;20273;-71
2023/05/18 07:32:38;;;;;;;13.70;1.98;;;;;;;;;;5025680;28;20745;-71
2023/05/18 07:35:04;;;;;;;7.78;2.38;;;;;;;;;;5019772;28;20195;-72
2023/05/18 07:37:30;;;;;;;9.88;2.38;;;;;;;;;;5019126;28;20205;-70
2023/05/18 07:39:55;;;;;;;13.18;2.72;;;;;;;;;;5025981;28;20607;-71
2023/05/18 07:42:21;;;;;;;13.13;2.20;;;;;;;;;;5043383;28;20588;-72
2023/05/18 07:44:46;;;;;;;9.65;1.75;;;;;;;;;;5030200;28;20193;-71
2023/05/18 07:47:11;;;;;;;8.30;2.20;;;;;;;;;;5031241;28;20220;-71
2023/05/18 07:49:38;;;;;;;9.30;2.13;;;;;;;;;;5025775;28;20232;-70
2023/05/18 07:52:07;;;;;;;8.35;1.77;;;;;;;;;;5027187;28;20557;-71
2023/05/18 07:54:32;;;;;;;6.13;1.98;;;;;;;;;;5019949;28;20278;-73
2023/05/18 07:56:57;;;;;;;13.60;2.40;;;;;;;;;;5024381;28;20544;-71
2023/05/18 07:59:23;;;;;;;11.95;2.17;;;;;;;;;;5015216;28;20499;-71
2023/05/18 08:01:48;;;;;;;12.00;2.47;;;;;;;;;;5010532;28;20217;-70
2023/05/18 08:04:14;;;;;;;11.02;2.40;;;;;;;;;;5020478;28;20287;-70
2023/05/18 08:06:39;;;;;;;10.38;2.50;;;;;;;;;;5016758;28;20516;-71
2023/05/18 08:09:05;;;;;;;11.02;2.13;;;;;;;;;;5016502;28;20543;-70
2023/05/18 08:11:31;;;;;;;8.48;2.33;;;;;;;;;;5029939;28;20209;-71
2023/05/18 08:13:57;;;;;;;10.00;2.20;;;;;;;;;;5019334;28;20209;-71
2023/05/18 08:16:22;;;;;;;11.38;1.83;;;;;;;;;;5032639;28;20657;-70
2023/05/18 08:18:48;;;;;;;8.57;1.95;;;;;;;;;;5030048;28;20194;-71
2023/05/18 08:21:13;;;;;;;8.73;2.20;;;;;;;;;;5017243;28;20265;-70
2023/05/18 08:23:39;;;;;;;12.02;2.35;;;;;;;;;;5026389;28;20234;-70
2023/05/18 08:26:04;;;;;;;6.93;1.98;;;;;;;;;;5021538;28;20677;-71
2023/05/18 08:28:30;;;;;;;10.20;2.15;;;;;;;;;;5026712;28;20186;-71
2023/05/18 08:30:55;;;;;;;10.20;2.20;;;;;;;;;;5020678;28;20397;-71
2023/05/18 08:33:22;;;;;;;8.38;2.35;;;;;;;;;;5026452;28;20296;-70
2023/05/18 08:35:48;;;;;;;17.15;2.65;;;;;;;;;;5021562;28;20194;-71
2023/05/18 08:38:13;;;;;;;10.35;2.10;;;;;;;;;;5022777;28;20233;-70
2023/05/18 08:41:04;;;;;;;5.95;1.88;;;;;;;;;;5017853;28;20198;-71
2023/05/18 08:43:34;;;;;;;7.18;2.25;;;;;;;;;;5023744;28;20236;-71
2023/05/18 08:46:41;;;;;;;10.18;2.53;;;;;;;;;;5021709;28;20185;-70
2023/05/18 08:49:09;;;;;;;6.50;2.08;;;;;;;;;;5025782;28;20206;-71
2023/05/18 08:51:36;;;;;;;9.07;2.97;;;;;;;;;;5029409;28;20210;-70
2023/05/18 08:54:04;;;;;;;13.98;2.55;;;;;;;;;;5026109;28;20590;-70
2023/05/18 08:56:32;;;;;;;5.03;1.88;;;;;;;;;;5023456;28;20189;-70
2023/05/18 08:58:58;;;;;;;10.57;2.05;;;;;;;;;;5024465;28;20306;-71
2023/05/18 09:01:27;;;;;;;13.35;2.00;;;;;;;;;;5021536;28;20229;-71
2023/05/18 09:03:55;;;;;;;7.32;2.10;;;;;;;;;;5018820;28;20194;-71
2023/05/18 09:06:23;;;;;;;14.48;2.58;;;;;;;;;;5018211;28;20550;-71
2023/05/18 09:08:52;;;;;;;12.38;2.72;;;;;;;;;;5016977;28;20289;-70
2023/05/18 09:11:18;;;;;;;9.88;2.92;;;;;;;;;;5025571;28;20202;-71
2023/05/18 09:13:45;;;;;;;7.80;2.45;;;;;;;;;;5029725;28;20712;-71
2023/05/18 09:16:10;;;;;;;10.10;2.30;;;;;;;;;;5026028;28;20185;-68
2023/05/18 09:18:35;;;;;;;7.90;1.98;;;;;;;;;;5022267;28;20217;-70
2023/05/18 09:21:01;;;;;;;14.48;2.42;;;;;;;;;;5022872;28;20202;-71
2023/05/18 09:23:26;;;;;;;11.10;2.60;;;;;;;;;;5023242;28;20558;-71
2023/05/18 09:25:53;;;;;;;7.28;2.30;;;;;;;;;;5022280;28;20286;-70
2023/05/18 09:28:34;;;;;;;10.63;2.63;;;;;;;;;;5023261;28;20478;-70
2023/05/18 09:30:59;;;;;;;7.88;2.25;;;;;;;;;;5022631;28;20210;-70
2023/05/18 09:33:24;;;;;;;8.27;2.72;;;;;;;;;;5025929;28;20637;-71
2023/05/18 09:35:50;;;;;;;10.35;2.53;;;;;;;;;;5015550;28;20255;-70
2023/05/18 09:38:20;;;;;;;9.45;2.45;;;;;;;;;;5021704;28;20217;-71
2023/05/18 09:40:47;;;;;;;7.78;2.00;;;;;;;;;;5030147;28;20260;-71
2023/05/18 09:43:13;;;;;;;6.18;1.70;;;;;;;;;;5020940;28;20202;-70
2023/05/18 09:45:43;;;;;;;7.72;2.78;;;;;;;;;;5019943;28;20193;-71
2023/05/18 09:48:09;;;;;;;8.40;2.17;;;;;;;;;;5021492;28;20193;-71
2023/05/18 09:50:36;;;;;;;7.57;2.40;;;;;;;;;;5026144;28;20559;-71
2023/05/18 09:53:07;;;;;;;8.30;2.47;;;;;;;;;;5013260;28;20327;-71
2023/05/18 09:55:36;;;;;;;7.10;2.22;;;;;;;;;;5024319;28;20209;-71
2023/05/18 09:58:03;;;;;;;7.07;2.10;;;;;;;;;;5023159;28;20501;-71
2023/05/18 10:00:28;;;;;;;8.10;1.90;;;;;;;;;;5023114;28;20489;-71
2023/05/18 10:02:55;;;;;;;8.40;2.40;;;;;;;;;;5027276;28;20284;-70
2023/05/18 10:05:22;;;;;;;10.63;2.50;;;;;;;;;;5027757;28;20195;-72
2023/05/18 10:07:49;;;;;;;8.13;2.25;;;;;;;;;;5012159;28;20264;-71
2023/05/18 10:10:24;;;;;;;6.15;2.25;;;;;;;;;;5010889;28;20368;-71
2023/05/18 10:12:51;;;;;;;7.72;2.47;;;;;;;;;;5010926;28;20214;-70
2023/05/18 10:15:20;;;;;;;9.73;2.78;;;;;;;;;;5028769;28;20189;-71
2023/05/18 10:17:47;;;;;;;9.23;2.28;;;;;;;;;;5028442;28;20266;-71
2023/05/18 10:20:17;;;;;;;5.43;2.15;;;;;;;;;;5037615;28;20666;-70
2023/05/18 10:22:47;;;;;;;8.32;2.20;;;;;;;;;;5027308;28;20182;-70
2023/05/18 10:25:19;;;;;;;6.05;2.35;;;;;;;;;;5021362;28;20194;-71
2023/05/18 10:27:49;;;;;;;7.75;1.77;;;;;;;;;;5035601;28;20231;-71
2023/05/18 10:30:16;;;;;;;8.05;2.53;;;;;;;;;;5019994;28;20537;-71
2023/05/18 10:32:42;;;;;;;8.07;2.72;;;;;;;;;;5022133;28;20686;-72
2023/05/18 10:35:09;;;;;;;8.38;2.58;;;;;;;;;;5022502;28;20194;-71
2023/05/18 10:37:38;;;;;;;8.95;2.35;;;;;;;;;;5022993;28;20201;-69
2023/05/18 10:40:06;;;;;;;8.02;2.63;;;;;;;;;;5028751;28;20285;-70
2023/05/18 10:42:32;;;;;;;9.48;2.47;;;;;;;;;;5024297;28;20661;-71
2023/05/18 10:45:00;;;;;;;5.90;2.38;;;;;;;;;;5028201;28;20689;-71
2023/05/18 10:47:27;;;;;;;8.10;2.35;;;;;;;;;;5034700;28;20194;-71
2023/05/18 10:49:53;;;;;;;9.02;2.60;;;;;;;;;;5023933;28;20265;-70
2023/05/18 10:52:19;;;;;;;4.88;2.22;;;;;;;;;;5028889;28;20256;-70
2023/05/18 10:54:45;;;;;;;7.13;2.80;;;;;;;;;;5024162;28;20198;-71
2023/05/18 10:57:14;;;;;;;11.00;3.65;;;;;;;;;;5026636;28;20218;-71
2023/05/18 10:59:42;;;;;;;7.38;2.83;;;;;;;;;;4333769;28;10000878;-71
2023/05/18 11:02:13;;;;;;;7.13;2.80;;;;;;;;;;5024781;28;20245;-71
2023/05/18 11:04:42;;;;;;;7.30;2.95;;;;;;;;;;5026851;28;20697;-70
2023/05/18 11:07:12;;;;;;;7.68;2.88;;;;;;;;;;5019581;28;20639;-70
2023/05/18 11:09:41;;;;;;;8.80;2.83;;;;;;;;;;5024664;28;20646;-70
2023/05/18 11:12:14;;;;;;;14.38;3.58;;;;;;;;;;5015761;28;20207;-72
2023/05/18 11:14:48;;;;;;;9.45;2.50;;;;;;;;;;5015541;28;20596;-71
2023/05/18 11:17:21;;;;;;;7.88;3.35;;;;;;;;;;5002611;28;20190;-71
2023/05/18 11:22:45;;;;;;;8.40;3.10;;;;;;;;;;5031902;28;20273;-71
2023/05/18 11:25:23;;;;;;;9.55;3.17;;;;;;;;;;5028926;28;20697;-70
2023/05/18 11:27:49;;;;;;;7.22;3.00;;;;;;;;;;5015688;28;20206;-71
2023/05/18 11:30:41;;;;;;;6.25;2.50;;;;;;;;;;5025146;28;20560;-70
2023/05/18 11:33:07;;;;;;;7.53;2.88;;;;;;;;;;5021639;28;20285;-70
2023/05/18 11:35:37;;;;;;;9.23;2.75;;;;;;;;;;5018761;28;20190;-73
2023/05/18 11:38:07;;;;;;;12.10;3.00;;;;;;;;;;5021608;28;20274;-71
2023/05/18 11:40:48;;;;;;;8.15;2.50;;;;;;;;;;5026757;28;20190;-71
2023/05/18 11:43:32;;;;;;;5.60;2.80;;;;;;;;;;5019787;28;20186;-72
2023/05/18 11:45:57;;;;;;;7.05;2.50;;;;;;;;;;5031901;28;20256;-72
2023/05/18 11:48:25;;;;;;;8.43;2.40;;;;;;;;;;4677523;28;10000584;-72
2023/05/18 11:50:54;;;;;;;8.10;2.53;;;;;;;;;;5012143;28;20207;-72
2023/05/18 11:53:25;;;;;;;10.73;2.95;;;;;;;;;;5037643;28;20605;-70
2023/05/18 11:55:53;;;;;;;8.55;2.90;;;;;;;;;;5026722;28;20200;-71
2023/05/18 11:58:20;;;;;;;10.90;3.22;;;;;;;;;;5022929;28;20208;-71
2023/05/18 12:00:47;;;;;;;7.65;2.58;;;;;;;;;;5022016;28;20296;-71
2023/05/18 12:03:13;;;;;;;14.38;2.90;;;;;;;;;;5019511;28;20198;-70
2023/05/18 12:05:40;;;;;;;5.07;2.50;;;;;;;;;;5018340;28;20202;-70
2023/05/18 12:08:08;;;;;;;9.93;2.92;;;;;;;;;;5020232;28;20183;-70
2023/05/18 12:10:35;;;;;;;7.28;2.60;;;;;;;;;;5028053;28;20206;-71
2023/05/18 12:13:01;;;;;;;10.52;2.90;;;;;;;;;;5025849;28;20237;-70
2023/05/18 12:15:27;;;;;;;12.05;3.92;;;;;;;;;;5028618;28;20260;-72
2023/05/18 12:17:53;;;;;;;7.07;2.70;;;;;;;;;;5044098;28;20177;-72
2023/05/18 12:20:27;;;;;;;10.07;3.50;;;;;;;;;;5033073;28;20784;-71
2023/05/18 12:22:54;;;;;;;11.90;3.03;;;;;;;;;;5033174;28;20569;-70
2023/05/18 12:25:22;;;;;;;5.72;2.72;;;;;;;;;;5027659;28;20228;-71
2023/05/18 12:27:50;;;;;;;6.78;3.42;;;;;;;;;;5023306;28;20193;-71
2023/05/18 12:30:18;;;;;;;6.38;2.78;;;;;;;;;;5024735;28;20194;-70
2023/05/18 12:32:45;;;;;;;8.70;2.95;;;;;;;;;;5018686;28;20678;-71
2023/05/18 12:35:11;;;;;;;11.55;2.92;;;;;;;;;;5026490;28;20189;-71
2023/05/18 12:37:43;;;;;;;6.55;2.80;;;;;;;;;;5023516;28;20270;-71
2023/05/18 12:40:13;;;;;;;8.90;2.85;;;;;;;;;;5011123;28;20194;-71
2023/05/18 12:42:39;;;;;;;8.27;2.70;;;;;;;;;;5013080;28;20190;-70
2023/05/18 12:45:05;;;;;;;10.40;2.63;;;;;;;;;;5013778;28;20192;-71
2023/05/18 12:47:32;;;;;;;6.05;2.78;;;;;;;;;;5018889;28;20198;-70
2023/05/18 12:50:02;;;;;;;8.80;2.92;;;;;;;;;;5025666;28;20253;-70
2023/05/18 12:52:27;;;;;;;8.52;2.58;;;;;;;;;;5024468;28;20914;-71
2023/05/18 12:54:57;;;;;;;8.82;2.60;;;;;;;;;;5024601;28;20197;-70
2023/05/18 12:57:26;;;;;;;12.88;2.90;;;;;;;;;;5019997;28;20182;-72
2023/05/18 12:59:54;;;;;;;6.03;2.78;;;;;;;;;;5024808;28;20185;-70
2023/05/18 13:02:36;;;;;;;7.25;2.70;;;;;;;;;;5034017;28;20255;-71
2023/05/18 13:05:03;;;;;;;5.53;2.72;;;;;;;;;;5014613;28;20260;-70
2023/05/18 13:07:29;;;;;;;9.57;3.10;;;;;;;;;;5024186;28;20216;-71
2023/05/18 13:10:06;;;;;;;6.57;3.13;;;;;;;;;;5021396;28;20190;-71
2023/05/18 13:12:48;;;;;;;8.02;3.03;;;;;;;;;;5019520;28;20209;-69
2023/05/18 13:15:16;;;;;;;10.88;3.30;;;;;;;;;;5024162;28;20577;-71
2023/05/18 13:18:02;;;;;;;10.02;2.63;;;;;;;;;;5016897;28;20202;-72
2023/05/18 13:20:32;;;;;;;7.32;3.10;;;;;;;;;;5020765;28;20189;-70
2023/05/18 13:23:01;;;;;;;10.38;2.85;;;;;;;;;;5017500;28;20195;-70
2023/05/18 13:25:26;;;;;;;11.98;3.45;;;;;;;;;;5023953;28;20193;-71
2023/05/18 13:27:53;;;;;;;9.57;2.90;;;;;;;;;;5010405;28;20206;-71
2023/05/18 13:30:20;;;;;;;11.55;3.13;;;;;;;;;;5016095;28;20685;-71
2023/05/18 13:32:45;;;;;;;8.05;2.72;;;;;;;;;;5017689;28;20218;-71
2023/05/18 13:35:12;;;;;;;8.35;2.53;;;;;;;;;;5025310;28;20189;-71
2023/05/18 13:37:38;;;;;;;7.10;3.05;;;;;;;;;;5015938;28;20213;-72
2023/05/18 13:40:04;;;;;;;5.88;2.92;;;;;;;;;;5030706;28;20390;-72
2023/05/18 13:42:30;;;;;;;9.75;3.42;;;;;;;;;;5035380;28;20213;-71
2023/05/18 13:44:55;;;;;;;6.05;2.58;;;;;;;;;;5023815;28;20224;-71
2023/05/18 13:47:21;;;;;;;5.63;2.70;;;;;;;;;;5022797;28;20196;-70
2023/05/18 13:49:46;;;;;;;11.65;2.85;;;;;;;;;;5018427;28;20206;-71
2023/05/18 13:52:11;;;;;;;8.68;3.17;;;;;;;;;;5023082;28;20209;-70
2023/05/18 13:54:37;;;;;;;9.88;3.17;;;;;;;;;;5015150;28;20182;-70
2023/05/18 13:57:03;;;;;;;7.65;2.40;;;;;;;;;;5025543;28;20272;-70
2023/05/18 13:59:28;;;;;;;8.73;3.05;;;;;;;;;;5023828;28;20605;-70
2023/05/18 14:01:53;;;;;;;9.15;2.90;;;;;;;;;;5015459;28;20276;-71
2023/05/18 14:04:19;;;;;;;9.52;2.92;;;;;;;;;;5024445;28;20577;-71
2023/05/18 14:06:44;;;;;;;7.25;2.92;;;;;;;;;;5014190;28;20233;-71
2023/05/18 14:09:10;;;;;;;10.90;2.90;;;;;;;;;;5018439;28;20190;-71
2023/05/18 14:11:37;;;;;;;6.10;3.00;;;;;;;;;;5028845;28;20360;-71
2023/05/18 14:14:02;;;;;;;8.02;2.85;;;;;;;;;;5020032;28;20190;-71
2023/05/18 14:16:28;;;;;;;7.82;2.95;;;;;;;;;;5036551;28;20242;-71
2023/05/18 14:18:54;;;;;;;10.38;3.05;;;;;;;;;;5038557;28;20232;-71
2023/05/18 14:21:19;;;;;;;10.60;3.10;;;;;;;;;;5020289;28;20225;-71
2023/05/18 14:23:46;;;;;;;9.98;3.25;;;;;;;;;;5017439;28;20723;-71
2023/05/18 14:26:12;;;;;;;7.63;3.00;;;;;;;;;;5025870;28;20198;-69
2023/05/18 14:28:37;;;;;;;7.88;2.80;;;;;;;;;;5028475;28;20206;-70
2023/05/18 14:31:03;;;;;;;9.52;2.95;;;;;;;;;;5028075;28;20210;-70
2023/05/18 14:33:28;;;;;;;9.68;2.83;;;;;;;;;;5026083;28;20194;-71
2023/05/18 14:35:55;;;;;;;6.03;2.70;;;;;;;;;;5020691;28;20205;-70
2023/05/18 14:38:25;;;;;;;8.18;3.10;;;;;;;;;;5042367;28;20308;-70
2023/05/18 14:40:51;;;;;;;10.57;3.05;;;;;;;;;;5030272;28;20202;-70
2023/05/18 14:43:16;;;;;;;13.10;3.38;;;;;;;;;;5027061;28;20197;-71